createdAt,value
2019-01-30T00:01:39.682Z,92.86
2019-01-30T00:04:08.692Z,92.93
2019-01-30T00:06:37.744Z,92.88
2019-01-30T00:09:09.705Z,93.21
2019-01-30T00:11:39.162Z,93.13
2019-01-30T00:14:08.215Z,93.04
2019-01-30T00:16:37.826Z,93.16
2019-01-30T00:19:06.883Z,93.39
2019-01-30T00:21:35.940Z,93.22
2019-01-30T00:24:05.833Z,93.43
2019-01-30T00:26:34.842Z,93.41
2019-01-30T00:29:04.539Z,93.18
2019-01-30T00:31:33.570Z,93.24
2019-01-30T00:34:02.978Z,93.08
2019-01-30T00:36:32.038Z,93.39
2019-01-30T00:39:01.062Z,93.52
2019-01-30T00:41:30.156Z,93.32
2019-01-30T00:43:59.198Z,93.51
2019-01-30T00:46:28.528Z,93.64
2019-01-30T00:48:57.537Z,93.54
2019-01-30T00:51:26.562Z,93.66
2019-01-30T00:53:55.604Z,93.37
2019-01-30T00:56:24.706Z,93.23
2019-01-30T00:58:53.742Z,93.14
2019-01-30T01:01:22.750Z,93.37
2019-01-30T01:03:52.446Z,93.22
2019-01-30T01:06:21.509Z,93.41
2019-01-30T01:08:50.640Z,93.46
2019-01-30T01:11:20.322Z,93.07
2019-01-30T01:13:49.342Z,93.13
2019-01-30T01:16:18.322Z,93.05
2019-01-30T01:18:47.370Z,93.01
2019-01-30T01:21:16.707Z,93.07
2019-01-30T01:23:46.409Z,93.13
2019-01-30T01:26:15.448Z,93.05
2019-01-30T01:28:44.484Z,93.32
2019-01-30T01:31:13.563Z,93.23
2019-01-30T01:33:43.292Z,93.37
2019-01-30T01:36:12.327Z,93.38
2019-01-30T01:38:41.337Z,93.29
2019-01-30T01:41:10.722Z,93.89
2019-01-30T01:43:40.062Z,93.55
2019-01-30T01:46:09.501Z,93.26
2019-01-30T01:48:38.566Z,93.29
2019-01-30T01:51:08.306Z,93.56
2019-01-30T01:53:37.815Z,93.14
2019-01-30T01:56:07.128Z,92.71
2019-01-30T01:58:36.186Z,92.89
2019-01-30T02:01:05.409Z,92.73
2019-01-30T02:03:34.434Z,92.33
2019-01-30T02:06:03.930Z,92.47
2019-01-30T02:08:33.058Z,92.75
2019-01-30T02:11:02.514Z,92.95
2019-01-30T02:13:31.666Z,93.04
2019-01-30T02:16:00.699Z,93.03
2019-01-30T02:18:29.711Z,93.44
2019-01-30T02:20:59.090Z,93.50
2019-01-30T02:23:28.237Z,93.45
2019-01-30T02:25:57.229Z,93.24
2019-01-30T02:28:26.258Z,93.39
2019-01-30T02:30:55.728Z,93.00
2019-01-30T02:33:25.108Z,93.08
2019-01-30T02:35:54.544Z,93.01
2019-01-30T02:38:24.007Z,93.08
2019-01-30T02:40:53.115Z,93.07
2019-01-30T02:43:22.155Z,93.05
2019-01-30T02:45:51.529Z,93.18
2019-01-30T02:48:20.598Z,93.26
2019-01-30T02:50:50.102Z,93.38
2019-01-30T02:53:19.211Z,93.38
2019-01-30T02:55:48.230Z,93.61
2019-01-30T02:58:17.302Z,93.71
2019-01-30T03:00:58.473Z,93.49
2019-01-30T03:03:18.096Z,93.59
2019-01-30T03:05:47.124Z,93.49
2019-01-30T03:08:16.165Z,93.48
2019-01-30T03:10:45.654Z,93.44
2019-01-30T03:13:15.163Z,93.51
2019-01-30T03:15:44.221Z,93.49
2019-01-30T03:18:13.314Z,93.52
2019-01-30T03:20:42.432Z,93.56
2019-01-30T03:23:12.123Z,93.64
2019-01-30T03:25:41.172Z,93.70
2019-01-30T03:28:10.243Z,93.74
2019-01-30T03:30:39.295Z,93.64
2019-01-30T03:33:08.656Z,93.76
2019-01-30T03:35:37.696Z,93.80
2019-01-30T03:38:07.036Z,93.82
2019-01-30T03:40:36.065Z,93.89
2019-01-30T03:43:05.921Z,93.79
2019-01-30T03:45:35.231Z,93.92
2019-01-30T03:48:04.277Z,93.97
2019-01-30T03:50:33.385Z,93.96
2019-01-30T03:53:02.398Z,93.86
2019-01-30T03:55:31.753Z,93.79
2019-01-30T03:58:01.602Z,93.93
2019-01-30T04:00:30.621Z,94.01
2019-01-30T04:02:59.672Z,93.84
2019-01-30T04:05:29.036Z,93.77
2019-01-30T04:07:58.828Z,93.75
2019-01-30T04:10:28.204Z,93.67
2019-01-30T04:12:57.247Z,93.75
2019-01-30T04:15:26.633Z,93.97
2019-01-30T04:17:55.716Z,93.91
2019-01-30T04:20:25.270Z,93.85
2019-01-30T04:22:54.281Z,93.78
2019-01-30T04:25:23.436Z,93.89
2019-01-30T04:27:52.647Z,93.89
2019-01-30T04:30:23.202Z,93.65
2019-01-30T04:32:52.367Z,93.70
2019-01-30T04:35:21.387Z,93.67
2019-01-30T04:37:50.743Z,93.78
2019-01-30T04:40:21.165Z,93.79
2019-01-30T04:42:50.291Z,93.63
2019-01-30T04:45:21.847Z,93.71
2019-01-30T04:47:50.994Z,93.78
2019-01-30T04:50:20.418Z,93.58
2019-01-30T04:52:49.603Z,93.73
2019-01-30T04:55:18.922Z,93.85
2019-01-30T04:57:47.934Z,93.74
2019-01-30T05:00:22.241Z,93.60
2019-01-30T05:02:51.271Z,93.66
2019-01-30T05:05:20.303Z,93.62
2019-01-30T05:07:49.370Z,93.64
2019-01-30T05:10:18.476Z,93.67
2019-01-30T05:12:47.526Z,93.46
2019-01-30T05:15:18.018Z,93.46
2019-01-30T05:17:47.333Z,93.73
2019-01-30T05:20:17.985Z,93.58
2019-01-30T05:22:47.412Z,93.40
2019-01-30T05:25:16.543Z,93.61
2019-01-30T05:27:45.562Z,93.49
2019-01-30T05:30:20.588Z,93.29
2019-01-30T05:32:49.645Z,93.28
2019-01-30T05:35:18.657Z,93.27
2019-01-30T05:37:47.676Z,93.37
2019-01-30T05:40:17.495Z,93.35
2019-01-30T05:42:46.519Z,93.57
2019-01-30T05:45:16.200Z,93.45
2019-01-30T05:47:45.326Z,93.60
2019-01-30T05:50:15.410Z,93.53
2019-01-30T05:52:44.436Z,93.70
2019-01-30T05:55:14.454Z,93.53
2019-01-30T05:57:43.530Z,93.68
2019-01-30T06:00:26.658Z,93.68
2019-01-30T06:02:55.703Z,93.67
2019-01-30T06:05:24.841Z,93.88
2019-01-30T06:07:53.869Z,93.76
2019-01-30T06:10:23.235Z,93.50
2019-01-30T06:12:52.296Z,93.38
2019-01-30T06:15:21.843Z,93.51
2019-01-30T06:17:50.974Z,93.61
2019-01-30T06:20:22.462Z,93.57
2019-01-30T06:22:51.512Z,93.91
2019-01-30T06:25:21.040Z,93.75
2019-01-30T06:27:50.205Z,93.58
2019-01-30T06:30:20.071Z,93.83
2019-01-30T06:32:49.191Z,93.84
2019-01-30T06:35:18.267Z,93.81
2019-01-30T06:37:47.332Z,93.85
2019-01-30T06:40:21.681Z,93.91
2019-01-30T06:42:51.002Z,93.85
2019-01-30T06:45:20.049Z,93.69
2019-01-30T06:47:49.071Z,93.87
2019-01-30T06:50:18.383Z,93.78
2019-01-30T06:52:47.508Z,93.61
2019-01-30T06:55:16.536Z,93.81
2019-01-30T06:57:45.529Z,93.75
2019-01-30T07:00:19.729Z,93.85
2019-01-30T07:02:48.908Z,93.76
2019-01-30T07:05:17.972Z,93.61
2019-01-30T07:07:46.980Z,93.66
2019-01-30T07:10:19.323Z,93.68
2019-01-30T07:12:48.420Z,93.71
2019-01-30T07:15:17.703Z,93.97
2019-01-30T07:17:46.865Z,93.95
2019-01-30T07:20:16.641Z,93.87
2019-01-30T07:22:45.911Z,93.74
2019-01-30T07:25:16.264Z,93.88
2019-01-30T07:27:45.595Z,94.03
2019-01-30T07:30:27.387Z,93.97
2019-01-30T07:32:56.405Z,94.04
2019-01-30T07:35:25.483Z,93.84
2019-01-30T07:37:54.688Z,93.86
2019-01-30T07:40:23.743Z,93.94
2019-01-30T07:42:52.829Z,94.07
2019-01-30T07:45:23.587Z,93.77
2019-01-30T07:47:52.614Z,93.87
2019-01-30T07:50:22.247Z,93.85
2019-01-30T07:52:51.421Z,93.70
2019-01-30T07:55:20.794Z,93.90
2019-01-30T07:57:49.907Z,93.93
2019-01-30T08:00:30.359Z,93.48
2019-01-30T08:02:59.375Z,93.37
2019-01-30T08:05:28.844Z,93.39
2019-01-30T08:07:57.885Z,92.98
2019-01-30T08:10:26.910Z,92.75
2019-01-30T08:12:55.961Z,92.66
2019-01-30T08:15:25.953Z,92.45
2019-01-30T08:17:55.271Z,92.29
2019-01-30T08:20:24.308Z,91.88
2019-01-30T08:22:53.429Z,91.93
2019-01-30T08:25:23.887Z,91.83
2019-01-30T08:27:53.671Z,91.73
2019-01-30T08:30:25.568Z,91.73
2019-01-30T08:33:04.300Z,91.10
2019-01-30T08:35:27.924Z,91.08
2019-01-30T08:37:57.752Z,89.97
2019-01-30T08:40:26.806Z,90.52
2019-01-30T08:42:55.860Z,89.48
2019-01-30T08:45:27.163Z,89.23
2019-01-30T08:47:56.200Z,89.50
2019-01-30T08:50:26.003Z,88.55
2019-01-30T08:52:55.056Z,88.91
2019-01-30T08:55:24.135Z,87.70
2019-01-30T08:57:53.258Z,87.58
2019-01-30T09:00:23.611Z,87.27
2019-01-30T09:02:53.065Z,87.93
2019-01-30T09:05:23.050Z,87.44
2019-01-30T09:07:52.085Z,86.65
2019-01-30T09:10:22.495Z,86.81
2019-01-30T09:12:51.522Z,87.78
2019-01-30T09:15:21.890Z,88.17
2019-01-30T09:17:51.668Z,88.40
2019-01-30T09:20:22.419Z,87.62
2019-01-30T09:22:51.817Z,87.48
2019-01-30T09:25:22.695Z,87.92
2019-01-30T09:27:52.224Z,87.06
2019-01-30T09:30:24.147Z,87.69
2019-01-30T09:32:55.297Z,87.20
2019-01-30T09:35:24.305Z,85.90
2019-01-30T09:37:53.362Z,86.26
2019-01-30T09:40:22.620Z,85.43
2019-01-30T09:42:51.630Z,85.43
2019-01-30T09:45:22.287Z,85.75
2019-01-30T09:47:51.474Z,86.00
2019-01-30T09:50:20.976Z,85.69
2019-01-30T09:52:50.211Z,84.97
2019-01-30T09:55:19.856Z,84.43
2019-01-30T09:57:48.911Z,84.50
2019-01-30T10:00:27.333Z,84.60
2019-01-30T10:02:56.689Z,84.45
2019-01-30T10:05:25.717Z,83.35
2019-01-30T10:07:55.229Z,83.54
2019-01-30T10:10:27.407Z,83.51
2019-01-30T10:12:56.784Z,83.31
2019-01-30T10:15:28.282Z,82.76
2019-01-30T10:17:57.276Z,83.11
2019-01-30T10:20:27.050Z,82.66
2019-01-30T10:22:56.421Z,81.80
2019-01-30T10:25:25.429Z,82.75
2019-01-30T10:27:54.904Z,82.82
2019-01-30T10:30:29.200Z,83.59
2019-01-30T10:32:58.542Z,83.65
2019-01-30T10:35:27.839Z,83.38
2019-01-30T10:37:57.265Z,81.24
2019-01-30T10:40:26.999Z,80.42
2019-01-30T10:42:57.358Z,79.46
2019-01-30T10:45:27.594Z,79.29
2019-01-30T10:47:56.611Z,79.63
2019-01-30T10:50:27.051Z,80.03
2019-01-30T10:52:56.098Z,78.93
2019-01-30T10:55:26.778Z,78.92
2019-01-30T10:57:57.979Z,79.23
2019-01-30T11:00:32.894Z,78.70
2019-01-30T11:03:02.316Z,78.11
2019-01-30T11:05:31.340Z,77.52
2019-01-30T11:08:00.348Z,77.76
2019-01-30T11:10:29.407Z,77.47
2019-01-30T11:12:58.430Z,77.07
2019-01-30T11:15:28.377Z,76.07
2019-01-30T11:17:58.134Z,75.90
2019-01-30T11:20:27.270Z,76.25
2019-01-30T11:22:56.270Z,74.39
2019-01-30T11:25:30.486Z,73.40
2019-01-30T11:28:00.208Z,75.26
2019-01-30T11:30:29.338Z,72.53
2019-01-30T11:32:58.484Z,73.32
2019-01-30T11:35:27.485Z,74.12
2019-01-30T11:37:56.526Z,72.02
2019-01-30T11:40:27.253Z,70.64
2019-01-30T11:42:56.266Z,68.90
2019-01-30T11:45:34.108Z,68.18
2019-01-30T11:48:03.242Z,66.26
2019-01-30T11:50:32.311Z,64.13
2019-01-30T11:53:01.386Z,63.96
2019-01-30T11:55:30.848Z,63.74
2019-01-30T11:57:59.899Z,61.27
2019-01-30T12:00:33.600Z,61.52
2019-01-30T12:03:03.042Z,60.33
2019-01-30T12:05:32.126Z,58.40
2019-01-30T12:08:01.153Z,57.82
2019-01-30T12:10:30.684Z,57.00
2019-01-30T12:12:59.682Z,55.03
2019-01-30T12:15:28.737Z,54.88
2019-01-30T12:17:58.156Z,55.66
2019-01-30T12:20:27.174Z,55.33
2019-01-30T12:22:56.507Z,56.79
2019-01-30T12:25:25.914Z,56.81
2019-01-30T12:27:55.194Z,59.21
2019-01-30T12:30:26.235Z,58.23
2019-01-30T12:32:55.250Z,58.34
2019-01-30T12:35:24.374Z,58.25
2019-01-30T12:37:53.370Z,58.89
2019-01-30T12:40:22.408Z,60.09
2019-01-30T12:42:51.650Z,58.69
2019-01-30T12:45:26.640Z,59.38
2019-01-30T12:47:55.918Z,64.67
2019-01-30T12:50:25.057Z,64.67
2019-01-30T12:52:54.122Z,65.11
2019-01-30T12:55:23.340Z,65.36
2019-01-30T12:57:52.713Z,66.36
2019-01-30T13:00:23.965Z,65.79
2019-01-30T13:02:53.380Z,64.93
2019-01-30T13:05:24.414Z,64.09
2019-01-30T13:07:53.437Z,64.81
2019-01-30T13:10:22.452Z,65.38
2019-01-30T13:12:51.904Z,65.64
2019-01-30T13:15:22.423Z,66.29
2019-01-30T13:17:51.808Z,66.98
2019-01-30T13:20:21.760Z,65.97
2019-01-30T13:22:51.110Z,66.82
2019-01-30T13:25:22.714Z,67.27
2019-01-30T13:27:51.770Z,67.56
2019-01-30T13:30:23.470Z,67.00
2019-01-30T13:32:52.690Z,67.00
2019-01-30T13:35:21.875Z,67.74
2019-01-30T13:37:50.880Z,65.78
2019-01-30T13:40:22.624Z,65.76
2019-01-30T13:42:52.536Z,66.82
2019-01-30T13:45:21.546Z,66.86
2019-01-30T13:47:50.569Z,68.36
2019-01-30T13:50:21.511Z,67.17
2019-01-30T13:52:50.596Z,66.81
2019-01-30T13:55:20.032Z,66.26
2019-01-30T13:57:49.131Z,65.66
2019-01-30T14:00:26.830Z,65.60
2019-01-30T14:02:55.878Z,65.99
2019-01-30T14:05:24.928Z,64.73
2019-01-30T14:07:54.158Z,63.27
2019-01-30T14:10:23.409Z,61.39
2019-01-30T14:12:52.434Z,61.20
2019-01-30T14:15:22.500Z,61.20
2019-01-30T14:17:51.776Z,62.41
2019-01-30T14:20:21.235Z,61.26
2019-01-30T14:22:50.359Z,60.90
2019-01-30T14:25:19.703Z,59.41
2019-01-30T14:27:48.990Z,59.41
2019-01-30T14:30:26.233Z,60.07
2019-01-30T14:32:55.590Z,60.05
2019-01-30T14:35:26.231Z,59.04
2019-01-30T14:37:55.784Z,60.16
2019-01-30T14:40:25.373Z,59.39
2019-01-30T14:42:54.445Z,58.71
2019-01-30T14:45:23.542Z,56.85
2019-01-30T14:47:52.610Z,58.04
2019-01-30T14:50:23.395Z,58.61
2019-01-30T14:52:52.467Z,58.80
2019-01-30T14:55:23.129Z,60.48
2019-01-30T14:57:52.429Z,60.94
2019-01-30T15:00:26.887Z,61.31
2019-01-30T15:02:56.199Z,61.31
2019-01-30T15:05:25.728Z,63.83
2019-01-30T15:07:55.041Z,66.11
2019-01-30T15:10:24.358Z,66.73
2019-01-30T15:12:53.433Z,65.96
2019-01-30T15:15:24.442Z,64.74
2019-01-30T15:17:54.081Z,64.34
2019-01-30T15:20:25.065Z,66.08
2019-01-30T15:22:54.459Z,65.70
2019-01-30T15:25:25.086Z,67.18
2019-01-30T15:27:54.147Z,67.28
2019-01-30T15:30:37.514Z,66.85
2019-01-30T15:33:06.821Z,69.17
2019-01-30T15:35:36.120Z,69.56
2019-01-30T15:38:07.302Z,69.49
2019-01-30T15:40:36.599Z,69.89
2019-01-30T15:43:06.010Z,70.99
2019-01-30T15:45:35.484Z,71.09
2019-01-30T15:48:05.231Z,71.54
2019-01-30T15:50:35.490Z,72.53
2019-01-30T15:53:07.650Z,72.85
2019-01-30T15:55:36.667Z,73.43
2019-01-30T15:58:08.390Z,73.93
2019-01-30T16:00:55.830Z,74.72
2019-01-30T16:03:25.165Z,75.17
2019-01-30T16:05:55.177Z,75.77
2019-01-30T16:08:24.605Z,75.49
2019-01-30T16:10:53.959Z,76.22
2019-01-30T16:13:23.020Z,76.37
2019-01-30T16:15:57.766Z,76.46
2019-01-30T16:18:28.418Z,76.15
2019-01-30T16:20:57.401Z,76.51
2019-01-30T16:23:26.460Z,76.62
2019-01-30T16:25:55.857Z,76.75
2019-01-30T16:28:25.275Z,77.47
2019-01-30T16:30:54.541Z,78.85
2019-01-30T16:33:23.581Z,77.78
2019-01-30T16:35:56.139Z,78.97
2019-01-30T16:38:24.021Z,79.05
2019-01-30T16:40:53.018Z,80.35
2019-01-30T16:43:22.471Z,80.83
2019-01-30T16:45:52.742Z,81.00
2019-01-30T16:48:21.755Z,80.46
2019-01-30T16:50:51.776Z,80.43
2019-01-30T16:53:21.255Z,80.64
2019-01-30T16:55:50.632Z,81.55
2019-01-30T16:58:20.609Z,82.50
2019-01-30T17:00:50.234Z,82.37
2019-01-30T17:03:19.278Z,81.54
2019-01-30T17:05:48.634Z,81.76
2019-01-30T17:08:17.963Z,82.77
2019-01-30T17:10:47.122Z,82.37
2019-01-30T17:13:16.205Z,81.38
2019-01-30T17:15:45.231Z,82.79
2019-01-30T17:18:15.316Z,82.39
2019-01-30T17:20:44.699Z,82.90
2019-01-30T17:23:13.727Z,82.35
2019-01-30T17:25:44.739Z,82.79
2019-01-30T17:28:14.115Z,82.89
2019-01-30T17:30:46.387Z,82.90
2019-01-30T17:33:15.779Z,82.92
2019-01-30T17:35:45.232Z,81.55
2019-01-30T17:38:14.274Z,82.35
2019-01-30T17:40:44.122Z,82.59
2019-01-30T17:43:13.229Z,81.75
2019-01-30T17:45:42.267Z,82.54
2019-01-30T17:48:12.920Z,81.83
2019-01-30T17:50:42.380Z,82.53
2019-01-30T17:53:11.482Z,82.75
2019-01-30T17:55:40.884Z,82.67
2019-01-30T17:58:10.032Z,83.38
2019-01-30T18:00:46.747Z,83.55
2019-01-30T18:03:17.186Z,84.26
2019-01-30T18:05:46.562Z,84.29
2019-01-30T18:08:15.582Z,84.44
2019-01-30T18:10:44.972Z,84.72
2019-01-30T18:13:14.300Z,84.98
2019-01-30T18:15:43.676Z,85.10
2019-01-30T18:18:12.741Z,85.91
2019-01-30T18:20:41.757Z,85.48
2019-01-30T18:23:10.795Z,85.20
2019-01-30T18:25:40.215Z,85.85
2019-01-30T18:28:09.258Z,85.70
2019-01-30T18:30:38.371Z,86.02
2019-01-30T18:33:07.424Z,85.22
2019-01-30T18:35:36.449Z,85.91
2019-01-30T18:38:06.433Z,87.52
2019-01-30T18:40:35.474Z,85.38
2019-01-30T18:43:04.632Z,85.56
2019-01-30T18:45:33.669Z,85.85
2019-01-30T18:48:02.715Z,85.94
2019-01-30T18:50:32.040Z,86.44
2019-01-30T18:53:01.088Z,86.56
2019-01-30T18:55:31.065Z,86.84
2019-01-30T18:58:00.711Z,87.77
2019-01-30T19:00:32.087Z,87.97
2019-01-30T19:03:02.467Z,87.07
2019-01-30T19:05:32.331Z,87.28
2019-01-30T19:08:01.383Z,86.78
2019-01-30T19:10:30.387Z,86.94
2019-01-30T19:12:59.431Z,87.53
2019-01-30T19:15:29.130Z,86.91
2019-01-30T19:17:58.495Z,87.15
2019-01-30T19:20:38.345Z,86.11
2019-01-30T19:23:07.439Z,87.12
2019-01-30T19:25:36.639Z,87.78
2019-01-30T19:28:06.291Z,86.98
2019-01-30T19:30:35.430Z,87.19
2019-01-30T19:33:06.637Z,87.68
2019-01-30T19:35:35.663Z,88.52
2019-01-30T19:38:05.435Z,88.23
2019-01-30T19:40:34.727Z,87.88
2019-01-30T19:43:03.852Z,88.16
2019-01-30T19:45:33.174Z,88.92
2019-01-30T19:48:02.258Z,89.11
2019-01-30T19:50:31.407Z,88.67
2019-01-30T19:53:00.841Z,87.45
2019-01-30T19:55:29.882Z,88.60
2019-01-30T19:57:59.253Z,89.04
2019-01-30T20:00:33.771Z,90.27
2019-01-30T20:03:03.905Z,90.05
2019-01-30T20:05:32.937Z,89.99
2019-01-30T20:08:02.273Z,89.64
2019-01-30T20:10:33.325Z,90.37
2019-01-30T20:13:02.480Z,90.42
2019-01-30T20:15:32.143Z,90.07
2019-01-30T20:18:01.329Z,90.58
2019-01-30T20:20:30.891Z,89.77
2019-01-30T20:22:59.947Z,89.53
2019-01-30T20:25:31.609Z,86.55
2019-01-30T20:28:01.022Z,86.33
2019-01-30T20:30:30.071Z,86.85
2019-01-30T20:32:59.126Z,87.15
2019-01-30T20:35:28.297Z,88.39
2019-01-30T20:37:57.328Z,88.69
2019-01-30T20:40:27.625Z,89.33
2019-01-30T20:42:57.234Z,89.69
2019-01-30T20:45:33.412Z,90.00
2019-01-30T20:47:57.236Z,90.18
2019-01-30T20:50:28.001Z,90.35
2019-01-30T20:52:57.501Z,91.41
2019-01-30T20:55:27.058Z,92.11
2019-01-30T20:57:56.357Z,90.29
2019-01-30T21:00:30.219Z,89.73
2019-01-30T21:02:59.522Z,90.22
2019-01-30T21:05:28.637Z,89.55
2019-01-30T21:07:58.161Z,89.96
2019-01-30T21:10:29.571Z,89.99
2019-01-30T21:13:01.766Z,89.11
2019-01-30T21:15:31.085Z,87.80
2019-01-30T21:18:00.175Z,88.82
2019-01-30T21:20:29.279Z,90.50
2019-01-30T21:22:58.818Z,91.94
2019-01-30T21:25:27.930Z,91.63
2019-01-30T21:27:59.119Z,91.82
2019-01-30T21:30:33.110Z,90.74
2019-01-30T21:33:02.147Z,91.13
2019-01-30T21:35:31.278Z,90.15
2019-01-30T21:38:00.334Z,90.11
2019-01-30T21:40:29.645Z,90.42
2019-01-30T21:42:59.677Z,90.64
2019-01-30T21:45:28.705Z,90.00
2019-01-30T21:47:57.745Z,89.43
2019-01-30T21:50:27.133Z,89.64
2019-01-30T21:52:56.200Z,89.16
2019-01-30T21:55:25.583Z,89.23
2019-01-30T21:57:54.605Z,89.46
2019-01-30T22:00:25.283Z,89.46
2019-01-30T22:02:54.629Z,89.70
2019-01-30T22:05:23.808Z,90.19
2019-01-30T22:08:00.682Z,90.60
2019-01-30T22:10:25.851Z,89.74
2019-01-30T22:12:54.939Z,88.87
2019-01-30T22:15:24.520Z,88.86
2019-01-30T22:17:57.300Z,88.91
2019-01-30T22:20:27.085Z,89.17
2019-01-30T22:22:56.444Z,89.01
2019-01-30T22:25:26.149Z,89.84
2019-01-30T22:27:55.833Z,89.74
2019-01-30T22:30:26.687Z,89.72
2019-01-30T22:32:55.673Z,89.72
2019-01-30T22:35:24.697Z,90.46
2019-01-30T22:37:53.829Z,90.47
2019-01-30T22:40:22.895Z,90.40
2019-01-30T22:42:51.913Z,90.07
2019-01-30T22:45:21.028Z,89.42
2019-01-30T22:47:50.328Z,88.96
2019-01-30T22:50:20.522Z,89.44
2019-01-30T22:52:49.971Z,90.28
2019-01-30T22:55:20.555Z,90.21
2019-01-30T22:57:50.968Z,89.70
2019-01-30T23:00:58.540Z,90.10
2019-01-30T23:03:58.765Z,89.69
2019-01-30T23:06:56.497Z,90.41
2019-01-30T23:09:49.253Z,89.15
2019-01-30T23:13:02.828Z,88.91
2019-01-30T23:16:00.344Z,90.12
2019-01-30T23:18:51.080Z,88.66
2019-01-30T23:21:25.209Z,89.07
2019-01-30T23:24:29.924Z,89.09
2019-01-30T23:27:19.445Z,88.61
2019-01-30T23:30:13.529Z,89.23
2019-01-30T23:33:25.350Z,89.82
2019-01-30T23:36:35.757Z,89.44
2019-01-30T23:39:37.073Z,89.49
2019-01-30T23:42:43.966Z,89.14
2019-01-30T23:45:29.668Z,89.78
2019-01-30T23:48:44.962Z,88.56
2019-01-30T23:51:27.456Z,87.91
2019-01-30T23:54:43.840Z,88.70
2019-01-30T23:57:28.928Z,88.69
